Time;durP1;ratioP1;P1;durP2;ratioP2;P2;SDS_P1;SDS_P2;PMS_P1;PMS_P2;Temp;Humidity;BMP_temperature;BMP_pressure;BME280_temperature;BME280_humidity;BME280_pressure;Samples;Min_cycle;Max_cycle;Signal;HPM_P1;HPM_P2
2022/10/30 04:00:43;;;;;;;;;;;12.80;99.90;;;;;;6102505;23;20022;-67
2022/10/30 04:03:10;;;;;;;;;;;12.90;99.90;;;;;;4959384;28;19937;-70
2022/10/30 04:05:39;;;;;;;;;;;12.80;99.90;;;;;;4965605;28;19950;-70
2022/10/30 04:08:07;;;;;;;;;;;12.80;99.90;;;;;;4961681;28;19933;-70
2022/10/30 04:10:36;;;;;;;;;;;12.80;99.90;;;;;;4958777;28;19927;-70
2022/10/30 04:13:09;;;;;;;;;;;12.80;99.90;;;;;;4944081;29;20397;-70
2022/10/30 04:15:40;;;;;;;;;;;12.80;99.90;;;;;;4950007;29;19934;-69
2022/10/30 04:18:10;;;;;;;;;;;12.70;99.90;;;;;;4948575;29;20399;-70
2022/10/30 04:20:37;;;;;;;;;;;12.70;99.90;;;;;;4939176;28;20369;-69
2022/10/30 04:23:06;;;;;;;;;;;12.70;99.90;;;;;;4947941;29;19941;-71
2022/10/30 04:25:34;;;;;;;;;;;12.70;99.90;;;;;;4944748;29;19927;-70
2022/10/30 04:28:01;;;;;;;;;;;12.60;99.90;;;;;;4960131;28;19926;-69
2022/10/30 04:30:33;;;;;;;;;;;12.60;99.90;;;;;;4949183;29;19926;-71
2022/10/30 04:33:01;;;;;;;;;;;12.60;99.90;;;;;;4943517;29;19934;-69
2022/10/30 04:35:31;;;;;;;;;;;12.60;99.90;;;;;;4942937;29;19927;-71
2022/10/30 04:37:59;;;;;;;;;;;12.60;99.90;;;;;;4949342;29;19958;-68
2022/10/30 04:40:27;;;;;;;;;;;12.50;99.90;;;;;;4944476;29;20053;-69
2022/10/30 04:42:59;;;;;;;;;;;12.50;99.90;;;;;;4969753;28;19926;-69
2022/10/30 04:45:26;;;;;;;;;;;12.40;99.90;;;;;;4952416;29;19974;-69
2022/10/30 04:48:00;;;;;;;;;;;12.40;99.90;;;;;;4959920;28;19935;-68
2022/10/30 04:50:27;;;;;;;;;;;12.40;99.90;;;;;;4947194;29;19926;-70
2022/10/30 04:52:59;;;;;;;;;;;12.30;99.90;;;;;;4952538;28;19926;-69
2022/10/30 04:55:27;;;;;;;;;;;12.30;99.90;;;;;;4946160;29;19934;-69
2022/10/30 04:57:55;;;;;;;;;;;12.30;99.90;;;;;;4949381;29;19934;-69
2022/10/30 05:00:22;;;;;;;;;;;12.30;99.90;;;;;;4941760;29;19930;-68
2022/10/30 05:02:48;;;;;;;;;;;12.30;99.90;;;;;;4942928;28;19933;-69
2022/10/30 05:05:15;;;;;;;;;;;12.30;99.90;;;;;;4946852;29;19935;-70
2022/10/30 05:07:42;;;;;;;;;;;12.30;99.90;;;;;;4947171;28;19931;-69
2022/10/30 05:10:13;;;;;;;;;;;12.30;99.90;;;;;;4939121;29;19934;-66
2022/10/30 05:12:41;;;;;;;;;;;12.20;99.90;;;;;;4945023;29;19993;-69
2022/10/30 05:15:08;;;;;;;;;;;12.20;99.90;;;;;;4950529;28;19927;-69
2022/10/30 05:17:35;;;;;;;;;;;12.20;99.90;;;;;;4952225;28;19930;-69
2022/10/30 05:20:02;;;;;;;;;;;12.20;99.90;;;;;;4943632;29;19927;-69
2022/10/30 05:22:29;;;;;;;;;;;12.10;99.90;;;;;;4948782;28;20397;-69
2022/10/30 05:24:55;;;;;;;;;;;12.10;99.90;;;;;;4943739;29;19930;-69
2022/10/30 05:27:24;;;;;;;;;;;12.20;99.90;;;;;;4945786;29;19934;-69
2022/10/30 05:29:51;;;;;;;;;;;12.20;99.90;;;;;;4949948;28;20309;-70
2022/10/30 05:32:17;;;;;;;;;;;12.20;99.90;;;;;;4935169;29;19927;-69
2022/10/30 05:34:48;;;;;;;;;;;12.20;99.90;;;;;;4940534;29;20010;-70
2022/10/30 05:37:20;;;;;;;;;;;12.20;99.90;;;;;;4948803;28;19933;-69
2022/10/30 05:39:47;;;;;;;;;;;12.10;99.90;;;;;;4941798;29;19934;-68
2022/10/30 05:42:26;;;;;;;;;;;12.10;99.90;;;;;;4945231;29;19930;-67
2022/10/30 05:44:54;;;;;;;;;;;12.00;99.90;;;;;;4949141;29;19930;-69
2022/10/30 05:47:21;;;;;;;;;;;12.00;99.90;;;;;;4948460;28;19927;-70
2022/10/30 05:49:52;;;;;;;;;;;11.90;99.90;;;;;;4946461;29;19938;-70
2022/10/30 05:52:21;;;;;;;;;;;11.90;99.90;;;;;;4948392;29;19931;-70
2022/10/30 05:54:50;;;;;;;;;;;11.90;99.90;;;;;;4942814;29;20014;-69
2022/10/30 05:57:27;;;;;;;;;;;11.90;99.90;;;;;;4946573;29;20312;-70
2022/10/30 05:59:54;;;;;;;;;;;11.90;99.90;;;;;;4963989;28;20018;-70
2022/10/30 06:02:21;;;;;;;;;;;11.90;99.90;;;;;;4947865;28;19934;-69
2022/10/30 06:04:48;;;;;;;;;;;11.90;99.90;;;;;;4949914;29;19941;-67
2022/10/30 06:07:15;;;;;;;;;;;11.80;99.90;;;;;;4942464;29;19927;-66
2022/10/30 06:09:42;;;;;;;;;;;11.80;99.90;;;;;;4947930;29;20025;-65
2022/10/30 06:12:23;;;;;;;;;;;11.80;99.90;;;;;;4950414;28;19933;-66
2022/10/30 06:14:59;;;;;;;;;;;11.80;99.90;;;;;;4945090;29;20282;-70
2022/10/30 06:17:26;;;;;;;;;;;11.80;99.90;;;;;;4944011;29;19934;-71
2022/10/30 06:20:13;;;;;;;;;;;11.80;99.90;;;;;;4948625;28;19926;-70
2022/10/30 06:22:55;;;;;;;;;;;11.80;99.90;;;;;;4946216;29;19989;-69
2022/10/30 06:25:24;;;;;;;;;;;11.80;99.90;;;;;;4947633;29;19926;-69
2022/10/30 06:27:57;;;;;;;;;;;11.80;99.90;;;;;;4944129;28;19926;-69
2022/10/30 06:30:25;;;;;;;;;;;11.80;99.90;;;;;;4940215;29;19931;-69
2022/10/30 06:32:55;;;;;;;;;;;11.70;99.90;;;;;;4950054;28;20021;-69
2022/10/30 06:35:22;;;;;;;;;;;11.70;99.90;;;;;;4943038;29;19985;-70
2022/10/30 06:37:50;;;;;;;;;;;11.70;99.90;;;;;;4944337;29;20049;-69
2022/10/30 06:40:17;;;;;;;;;;;11.70;99.90;;;;;;4943135;29;19934;-69
2022/10/30 06:42:45;;;;;;;;;;;11.70;99.90;;;;;;4944161;28;19931;-68
2022/10/30 06:45:27;;;;;;;;;;;11.80;99.90;;;;;;4944319;29;19966;-70
2022/10/30 06:47:54;;;;;;;;;;;11.80;99.90;;;;;;4946848;29;19934;-70
2022/10/30 06:50:23;;;;;;;;;;;11.90;99.90;;;;;;4949982;29;19927;-70
2022/10/30 06:52:49;;;;;;;;;;;11.90;99.90;;;;;;4944660;29;19927;-70
2022/10/30 06:55:17;;;;;;;;;;;12.00;99.90;;;;;;4944512;29;19933;-71
2022/10/30 06:57:53;;;;;;;;;;;12.00;99.90;;;;;;4948171;29;20030;-67
2022/10/30 07:00:30;;;;;;;;;;;12.00;99.90;;;;;;4936014;29;20346;-70
2022/10/30 07:03:15;;;;;;;;;;;12.10;99.90;;;;;;4947691;29;20045;-71
2022/10/30 07:05:42;;;;;;;;;;;12.10;99.90;;;;;;4942090;29;19989;-70
2022/10/30 07:08:09;;;;;;;;;;;12.10;99.90;;;;;;4944935;29;20011;-70
2022/10/30 07:10:35;;;;;;;;;;;12.20;99.90;;;;;;4946658;29;19926;-70
2022/10/30 07:13:28;;;;;;;;;;;12.30;99.90;;;;;;4930743;28;20024;-67
2022/10/30 07:16:15;;;;;;;;;;;12.40;99.90;;;;;;4939735;29;19996;-66
2022/10/30 07:18:45;;;;;;;;;;;12.50;99.90;;;;;;4947048;28;20452;-70
2022/10/30 07:21:12;;;;;;;;;;;12.50;99.90;;;;;;4948175;28;20209;-70
2022/10/30 07:23:39;;;;;;;;;;;12.60;99.90;;;;;;4945068;28;19982;-70
2022/10/30 07:26:38;;;;;;;;;;;12.60;99.90;;;;;;4935686;28;20002;-70
2022/10/30 07:29:43;;;;;;;;;;;12.70;99.90;;;;;;4928478;28;20433;-69
2022/10/30 07:32:17;;;;;;;;;;;12.70;99.90;;;;;;4942678;29;20398;-70
2022/10/30 07:35:11;;;;;;;;;;;12.80;99.90;;;;;;4943767;29;20511;-70
2022/10/30 07:37:55;;;;;;;;;;;12.90;99.90;;;;;;4945960;29;19935;-70
2022/10/30 07:40:31;;;;;;;;;;;13.00;99.90;;;;;;4949813;29;19926;-70
2022/10/30 07:43:09;;;;;;;;;;;13.10;99.90;;;;;;4947552;29;19948;-70
2022/10/30 07:45:47;;;;;;;;;;;13.10;99.90;;;;;;4951788;29;19942;-69
2022/10/30 07:48:34;;;;;;;;;;;13.20;99.90;;;;;;4946039;29;19933;-70
2022/10/30 07:51:08;;;;;;;;;;;13.30;99.90;;;;;;4944272;29;19927;-71
2022/10/30 07:53:35;;;;;;;;;;;13.40;99.90;;;;;;4949164;29;20451;-70
2022/10/30 07:56:03;;;;;;;;;;;13.50;99.90;;;;;;4950415;29;20067;-70
2022/10/30 07:59:05;;;;;;;;;;;13.50;99.90;;;;;;4951865;29;20006;-69
2022/10/30 08:01:37;;;;;;;;;;;13.60;99.90;;;;;;4950724;29;19934;-70
2022/10/30 08:04:25;;;;;;;;;;;13.60;99.90;;;;;;4951091;29;19948;-71
2022/10/30 08:06:58;;;;;;;;;;;13.70;99.90;;;;;;4949132;29;20415;-66
2022/10/30 08:09:25;;;;;;;;;;;13.80;99.90;;;;;;4950231;29;19965;-71
2022/10/30 08:11:52;;;;;;;;;;;13.80;99.90;;;;;;4965495;28;20024;-72
2022/10/30 08:14:19;;;;;;;;;;;13.90;99.90;;;;;;4952098;29;19927;-72
2022/10/30 08:16:46;;;;;;;;;;;14.00;99.90;;;;;;4945953;29;19966;-69
2022/10/30 08:19:13;;;;;;;;;;;14.10;99.90;;;;;;4953408;29;19986;-69
2022/10/30 08:21:43;;;;;;;;;;;14.30;99.90;;;;;;4950802;29;20329;-70
2022/10/30 08:24:16;;;;;;;;;;;14.30;99.90;;;;;;4945420;29;19926;-70
2022/10/30 08:26:46;;;;;;;;;;;14.50;99.90;;;;;;4948064;29;19977;-69
2022/10/30 08:29:13;;;;;;;;;;;14.70;99.90;;;;;;4953501;29;19930;-69
2022/10/30 08:31:41;;;;;;;;;;;14.90;99.90;;;;;;4948991;28;19934;-69
2022/10/30 08:34:22;;;;;;;;;;;15.10;99.90;;;;;;4954200;29;19933;-69
2022/10/30 08:36:54;;;;;;;;;;;15.30;99.90;;;;;;4950647;29;19926;-69
2022/10/30 08:39:21;;;;;;;;;;;15.50;99.90;;;;;;4939239;29;20271;-69
2022/10/30 08:42:06;;;;;;;;;;;15.70;99.90;;;;;;4943339;29;20036;-68
2022/10/30 08:44:40;;;;;;;;;;;15.90;99.90;;;;;;4945167;29;20026;-71
2022/10/30 08:47:25;;;;;;;;;;;16.10;99.90;;;;;;4944699;29;20501;-69
2022/10/30 08:49:53;;;;;;;;;;;16.30;99.90;;;;;;4950317;28;20017;-69
2022/10/30 08:52:24;;;;;;;;;;;16.50;99.90;;;;;;4953686;28;19949;-69
2022/10/30 08:54:55;;;;;;;;;;;16.60;99.90;;;;;;4945506;29;19949;-68
2022/10/30 08:57:24;;;;;;;;;;;16.80;99.90;;;;;;4950838;29;19926;-69
2022/10/30 08:59:53;;;;;;;;;;;17.00;99.90;;;;;;4949413;29;20055;-65
2022/10/30 09:02:40;;;;;;;;;;;17.20;99.90;;;;;;4953867;28;20001;-68
2022/10/30 09:05:27;;;;;;;;;;;17.40;99.90;;;;;;4950651;28;20021;-69
2022/10/30 09:08:18;;;;;;;;;;;17.70;99.90;;;;;;4947017;29;19933;-71
2022/10/30 09:11:07;;;;;;;;;;;17.90;99.90;;;;;;4945290;28;19933;-70
2022/10/30 09:13:34;;;;;;;;;;;18.20;99.90;;;;;;4946932;29;19930;-70
2022/10/30 09:16:02;;;;;;;;;;;18.30;99.90;;;;;;4952243;28;19926;-69
2022/10/30 09:18:31;;;;;;;;;;;18.60;99.90;;;;;;4947117;28;19969;-67
2022/10/30 09:20:59;;;;;;;;;;;18.70;99.90;;;;;;4944933;28;19961;-69
2022/10/30 09:23:28;;;;;;;;;;;18.80;99.90;;;;;;4946217;29;20282;-70
2022/10/30 09:26:13;;;;;;;;;;;19.00;99.90;;;;;;4950138;29;19981;-69
2022/10/30 09:28:50;;;;;;;;;;;19.30;99.90;;;;;;4942957;29;19927;-69
2022/10/30 09:31:35;;;;;;;;;;;19.60;99.90;;;;;;4944400;29;19937;-69
2022/10/30 09:34:04;;;;;;;;;;;19.70;99.90;;;;;;4952813;29;19926;-71
2022/10/30 09:36:48;;;;;;;;;;;19.80;99.90;;;;;;4954500;28;19935;-69
2022/10/30 09:39:16;;;;;;;;;;;20.00;99.90;;;;;;4952357;28;19935;-70
2022/10/30 09:42:09;;;;;;;;;;;20.10;99.90;;;;;;4949698;28;19926;-69
2022/10/30 09:44:40;;;;;;;;;;;20.10;99.90;;;;;;4943653;29;19927;-69
2022/10/30 09:47:13;;;;;;;;;;;20.40;99.90;;;;;;4945705;29;19930;-70
2022/10/30 09:49:50;;;;;;;;;;;20.50;99.90;;;;;;4947379;29;20028;-70
2022/10/30 09:52:21;;;;;;;;;;;20.70;99.90;;;;;;4946317;29;19927;-68
2022/10/30 09:54:59;;;;;;;;;;;21.00;99.90;;;;;;4943180;28;19926;-70
2022/10/30 09:57:30;;;;;;;;;;;21.10;99.90;;;;;;4951856;29;19926;-70
2022/10/30 10:00:02;;;;;;;;;;;21.20;99.90;;;;;;4966297;28;19958;-70
2022/10/30 10:02:33;;;;;;;;;;;21.20;99.90;;;;;;4946880;28;19926;-70
2022/10/30 10:05:03;;;;;;;;;;;21.40;99.90;;;;;;4942233;29;20382;-68
2022/10/30 10:08:10;;;;;;;;;;;21.60;99.90;;;;;;4947702;29;19938;-76
2022/10/30 10:10:58;;;;;;;;;;;21.90;99.90;;;;;;4947411;29;19937;-70
2022/10/30 10:13:28;;;;;;;;;;;22.20;99.90;;;;;;4946994;29;19927;-68
2022/10/30 10:15:57;;;;;;;;;;;22.20;99.90;;;;;;4949647;29;19934;-69
2022/10/30 10:18:25;;;;;;;;;;;23.00;99.90;;;;;;4949202;29;19934;-72
2022/10/30 10:20:55;;;;;;;;;;;26.90;99.90;;;;;;4946922;28;19934;-77
2022/10/30 10:23:26;;;;;;;;;;;29.40;99.90;;;;;;4945459;29;20310;-70
2022/10/30 10:25:54;;;;;;;;;;;31.00;99.90;;;;;;4956906;28;19934;-70
2022/10/30 10:28:41;;;;;;;;;;;30.90;99.90;;;;;;4943570;28;19926;-70
2022/10/30 10:31:12;;;;;;;;;;;30.80;99.90;;;;;;4963247;28;19991;-71
2022/10/30 10:33:48;;;;;;;;;;;31.20;99.90;;;;;;4943834;29;19937;-71
2022/10/30 10:36:20;;;;;;;;;;;31.50;99.90;;;;;;4951073;29;20016;-70
2022/10/30 10:38:53;;;;;;;;;;;32.00;99.90;;;;;;4941407;29;19935;-71
2022/10/30 10:41:25;;;;;;;;;;;33.00;99.90;;;;;;4950076;29;19927;-71
2022/10/30 10:44:00;;;;;;;;;;;34.10;99.90;;;;;;4942602;29;19926;-71
2022/10/30 10:46:33;;;;;;;;;;;34.60;99.90;;;;;;4966544;28;19934;-72
2022/10/30 10:51:53;;;;;;;;;;;36.10;99.90;;;;;;4947736;28;19923;-71
2022/10/30 10:54:23;;;;;;;;;;;36.00;99.90;;;;;;4949567;29;19926;-71
2022/10/30 10:56:51;;;;;;;;;;;36.10;99.90;;;;;;4940724;29;19927;-72
2022/10/30 10:59:21;;;;;;;;;;;37.00;99.90;;;;;;4943580;29;19927;-71
2022/10/30 11:01:51;;;;;;;;;;;35.70;99.90;;;;;;4941682;28;20310;-71
2022/10/30 11:04:21;;;;;;;;;;;36.30;99.90;;;;;;4938333;29;19927;-71
2022/10/30 11:06:50;;;;;;;;;;;36.50;99.90;;;;;;4943414;29;19934;-71
2022/10/30 11:09:18;;;;;;;;;;;35.80;99.90;;;;;;4943053;29;19926;-73
2022/10/30 11:11:45;;;;;;;;;;;37.10;99.90;;;;;;4950789;28;19927;-72
2022/10/30 11:14:14;;;;;;;;;;;37.50;99.90;;;;;;4946570;28;19927;-71
2022/10/30 11:16:50;;;;;;;;;;;36.80;99.90;;;;;;4946423;29;19950;-71
2022/10/30 11:19:17;;;;;;;;;;;37.20;99.90;;;;;;4948897;29;19926;-72
2022/10/30 11:21:46;;;;;;;;;;;37.00;99.90;;;;;;4949531;29;19926;-72
2022/10/30 11:24:25;;;;;;;;;;;36.30;99.90;;;;;;4954515;29;19927;-71
2022/10/30 11:26:57;;;;;;;;;;;35.50;99.90;;;;;;4947514;29;19927;-72
2022/10/30 11:29:25;;;;;;;;;;;36.40;99.90;;;;;;4942666;29;20389;-72
2022/10/30 11:32:01;;;;;;;;;;;37.10;99.90;;;;;;4965770;28;19981;-71
2022/10/30 11:34:31;;;;;;;;;;;37.20;99.90;;;;;;4946843;29;19986;-71
2022/10/30 11:36:58;;;;;;;;;;;37.50;99.90;;;;;;4943580;29;19934;-70
2022/10/30 11:39:26;;;;;;;;;;;37.80;99.90;;;;;;4944741;29;19930;-71
2022/10/30 11:41:57;;;;;;;;;;;37.80;99.90;;;;;;4945379;29;19926;-72
2022/10/30 11:44:25;;;;;;;;;;;38.00;99.90;;;;;;4945517;29;19969;-71
2022/10/30 11:46:52;;;;;;;;;;;37.80;99.90;;;;;;4970583;28;19926;-71
2022/10/30 11:49:25;;;;;;;;;;;37.40;99.90;;;;;;4948659;29;19934;-71
2022/10/30 11:51:52;;;;;;;;;;;37.40;99.90;;;;;;4951666;29;19927;-72
2022/10/30 11:54:21;;;;;;;;;;;37.50;99.90;;;;;;4948200;29;19926;-71
2022/10/30 11:56:49;;;;;;;;;;;37.20;99.90;;;;;;4947761;29;19927;-72
2022/10/30 11:59:18;;;;;;;;;;;36.50;99.90;;;;;;4937405;29;19931;-71
2022/10/30 12:01:57;;;;;;;;;;;35.70;99.90;;;;;;4950837;29;19927;-72
2022/10/30 12:04:27;;;;;;;;;;;35.40;99.90;;;;;;4945211;29;19927;-71
2022/10/30 12:07:06;;;;;;;;;;;34.30;99.90;;;;;;4949041;28;19926;-71
2022/10/30 12:09:41;;;;;;;;;;;33.30;99.90;;;;;;4953031;28;19930;-72
2022/10/30 12:12:10;;;;;;;;;;;33.10;99.90;;;;;;4966075;28;20318;-72
2022/10/30 12:14:37;;;;;;;;;;;33.20;99.90;;;;;;4969181;28;19932;-72
2022/10/30 12:17:04;;;;;;;;;;;33.40;99.90;;;;;;4944830;29;20282;-72
2022/10/30 12:19:32;;;;;;;;;;;33.60;99.90;;;;;;4949775;29;19927;-71
2022/10/30 12:22:00;;;;;;;;;;;33.90;99.90;;;;;;4950201;29;19927;-71
2022/10/30 12:24:29;;;;;;;;;;;33.70;99.90;;;;;;4942929;28;20027;-72
2022/10/30 12:26:57;;;;;;;;;;;33.50;99.90;;;;;;4949630;29;19930;-71
2022/10/30 12:29:25;;;;;;;;;;;34.00;99.90;;;;;;4939167;29;19947;-71
2022/10/30 12:31:55;;;;;;;;;;;34.10;99.90;;;;;;4953026;29;19933;-72
2022/10/30 12:34:33;;;;;;;;;;;34.10;99.90;;;;;;4953682;29;19966;-69
2022/10/30 12:37:04;;;;;;;;;;;33.80;99.90;;;;;;4945589;29;19933;-73
2022/10/30 12:39:36;;;;;;;;;;;32.80;99.90;;;;;;4947405;29;19978;-72
2022/10/30 12:42:05;;;;;;;;;;;32.70;99.90;;;;;;4943064;29;19930;-72
2022/10/30 12:44:34;;;;;;;;;;;32.90;99.90;;;;;;4965971;28;19926;-71
2022/10/30 12:47:04;;;;;;;;;;;32.70;99.90;;;;;;4950105;29;19926;-71
2022/10/30 12:49:36;;;;;;;;;;;31.60;99.90;;;;;;4950244;29;19930;-72
2022/10/30 12:52:06;;;;;;;;;;;31.10;99.90;;;;;;4959153;28;19930;-71
2022/10/30 12:54:36;;;;;;;;;;;30.80;99.90;;;;;;4950552;29;19926;-70
2022/10/30 12:57:07;;;;;;;;;;;30.60;99.90;;;;;;4952247;29;19931;-71
2022/10/30 12:59:39;;;;;;;;;;;30.10;99.90;;;;;;4955460;28;19926;-72
2022/10/30 13:02:13;;;;;;;;;;;29.40;99.90;;;;;;4965953;28;20453;-72
2022/10/30 13:04:41;;;;;;;;;;;28.90;99.90;;;;;;4947708;29;19930;-69
2022/10/30 13:07:13;;;;;;;;;;;29.00;99.90;;;;;;4950299;29;19930;-71
2022/10/30 13:09:41;;;;;;;;;;;29.10;99.90;;;;;;4944299;29;19927;-70
2022/10/30 13:12:09;;;;;;;;;;;29.50;99.90;;;;;;4945073;29;19931;-70
2022/10/30 13:14:39;;;;;;;;;;;29.90;99.90;;;;;;4945511;29;19926;-70
2022/10/30 13:17:10;;;;;;;;;;;30.10;99.90;;;;;;4951564;29;19931;-70
2022/10/30 13:19:40;;;;;;;;;;;29.80;99.90;;;;;;4952467;29;19926;-72
2022/10/30 13:22:08;;;;;;;;;;;30.00;99.90;;;;;;4949393;28;19974;-71
2022/10/30 13:24:44;;;;;;;;;;;29.90;99.90;;;;;;4949488;29;20286;-70
2022/10/30 13:27:14;;;;;;;;;;;29.80;99.90;;;;;;4945123;29;19927;-70
2022/10/30 13:29:44;;;;;;;;;;;30.10;99.90;;;;;;4948910;28;19926;-71
2022/10/30 13:32:22;;;;;;;;;;;30.70;99.90;;;;;;4948085;28;19934;-71
2022/10/30 13:34:52;;;;;;;;;;;31.30;99.90;;;;;;4946944;29;19934;-71
2022/10/30 13:37:23;;;;;;;;;;;30.60;99.90;;;;;;4950828;28;19926;-71
2022/10/30 13:39:58;;;;;;;;;;;30.40;99.90;;;;;;4948771;29;19926;-72
2022/10/30 13:42:34;;;;;;;;;;;28.90;99.90;;;;;;4948028;28;19930;-70
2022/10/30 13:45:06;;;;;;;;;;;27.80;99.90;;;;;;4964245;28;19926;-71
2022/10/30 13:47:38;;;;;;;;;;;27.00;99.90;;;;;;4950849;29;19927;-70
2022/10/30 13:50:13;;;;;;;;;;;27.00;99.90;;;;;;4945627;29;19926;-72
2022/10/30 13:52:43;;;;;;;;;;;27.30;99.90;;;;;;4948757;28;19931;-71
2022/10/30 13:55:16;;;;;;;;;;;27.20;99.90;;;;;;4950998;29;19927;-73
2022/10/30 13:57:45;;;;;;;;;;;27.00;99.90;;;;;;4945412;29;19927;-72
2022/10/30 14:00:15;;;;;;;;;;;27.30;99.90;;;;;;4944629;29;19926;-71
2022/10/30 14:02:53;;;;;;;;;;;27.40;99.90;;;;;;4949671;29;19926;-71
2022/10/30 14:05:26;;;;;;;;;;;26.90;99.90;;;;;;4945650;29;19931;-71
2022/10/30 14:08:00;;;;;;;;;;;27.40;99.90;;;;;;4951213;29;19926;-70
2022/10/30 14:10:36;;;;;;;;;;;28.10;99.90;;;;;;4956360;28;19926;-71
2022/10/30 14:13:08;;;;;;;;;;;28.30;99.90;;;;;;4947187;29;19952;-71
2022/10/30 14:15:41;;;;;;;;;;;29.10;99.90;;;;;;4951487;29;19926;-72
2022/10/30 14:18:23;;;;;;;;;;;28.90;99.90;;;;;;4951588;29;19926;-71
2022/10/30 14:20:50;;;;;;;;;;;28.10;99.90;;;;;;4951078;28;19927;-71
2022/10/30 14:23:20;;;;;;;;;;;28.40;99.90;;;;;;4947215;29;19952;-72
2022/10/30 14:26:02;;;;;;;;;;;28.40;99.90;;;;;;4952175;29;20357;-72
2022/10/30 14:28:31;;;;;;;;;;;28.50;99.90;;;;;;4946016;29;19930;-72
2022/10/30 14:31:01;;;;;;;;;;;28.00;99.90;;;;;;4959235;28;19926;-71
2022/10/30 14:33:37;;;;;;;;;;;27.70;99.90;;;;;;4948173;29;19934;-72
2022/10/30 14:36:18;;;;;;;;;;;26.90;99.90;;;;;;4947902;29;19942;-71
2022/10/30 14:38:52;;;;;;;;;;;26.50;99.90;;;;;;4945458;29;19933;-71
2022/10/30 14:41:40;;;;;;;;;;;26.10;99.90;;;;;;4948775;29;20722;-72
2022/10/30 14:44:34;;;;;;;;;;;25.60;99.90;;;;;;4948264;29;19930;-71
2022/10/30 14:47:15;;;;;;;;;;;26.10;99.90;;;;;;4966359;28;19926;-71
2022/10/30 14:49:47;;;;;;;;;;;27.10;99.90;;;;;;4947226;28;19974;-72
2022/10/30 14:52:23;;;;;;;;;;;28.00;99.90;;;;;;4943395;29;19927;-71
2022/10/30 14:54:54;;;;;;;;;;;28.30;99.90;;;;;;4944641;29;19927;-73
2022/10/30 14:57:22;;;;;;;;;;;28.30;99.90;;;;;;4936975;28;19962;-72
2022/10/30 14:59:49;;;;;;;;;;;28.20;99.90;;;;;;4950653;29;19927;-72
2022/10/30 15:02:32;;;;;;;;;;;28.30;99.90;;;;;;4948936;29;19926;-73
2022/10/30 15:05:23;;;;;;;;;;;28.30;99.90;;;;;;4947825;29;20013;-71
2022/10/30 15:07:53;;;;;;;;;;;28.00;99.90;;;;;;4926427;29;19957;-69
2022/10/30 15:10:22;;;;;;;;;;;28.20;99.90;;;;;;4954755;28;19937;-68
2022/10/30 15:12:56;;;;;;;;;;;27.80;99.90;;;;;;4950009;29;19930;-68
2022/10/30 15:15:23;;;;;;;;;;;27.70;99.90;;;;;;4951064;29;19938;-70
2022/10/30 15:17:53;;;;;;;;;;;27.50;99.90;;;;;;4959054;28;19930;-66
2022/10/30 15:20:21;;;;;;;;;;;27.30;99.90;;;;;;4944867;29;19934;-72
2022/10/30 15:22:50;;;;;;;;;;;26.60;99.90;;;;;;4949828;29;20374;-68
2022/10/30 15:25:19;;;;;;;;;;;26.20;99.90;;;;;;4958578;28;19990;-69
2022/10/30 15:27:46;;;;;;;;;;;25.40;99.90;;;;;;4949958;28;19927;-65
2022/10/30 15:30:16;;;;;;;;;;;24.90;99.90;;;;;;4958120;28;19927;-69
2022/10/30 15:32:42;;;;;;;;;;;24.30;99.90;;;;;;4949969;28;19933;-69
2022/10/30 15:35:14;;;;;;;;;;;23.80;99.90;;;;;;4948164;29;19930;-67
2022/10/30 15:37:55;;;;;;;;;;;23.50;99.90;;;;;;4937591;29;19927;-69
2022/10/30 15:40:22;;;;;;;;;;;23.00;99.90;;;;;;4933308;29;19934;-68
2022/10/30 15:42:49;;;;;;;;;;;22.60;99.90;;;;;;4942941;28;19937;-70
2022/10/30 15:45:17;;;;;;;;;;;22.40;99.90;;;;;;4940782;29;19931;-68
2022/10/30 15:47:46;;;;;;;;;;;22.30;99.90;;;;;;4948009;28;19927;-68
2022/10/30 15:50:15;;;;;;;;;;;22.00;99.90;;;;;;4932864;29;19927;-68
2022/10/30 15:52:42;;;;;;;;;;;21.90;99.90;;;;;;4941414;29;19964;-68
2022/10/30 15:55:13;;;;;;;;;;;21.70;99.90;;;;;;4938045;29;19927;-67
2022/10/30 15:57:42;;;;;;;;;;;21.50;99.90;;;;;;4942037;28;19937;-69
2022/10/30 16:00:21;;;;;;;;;;;21.30;99.90;;;;;;4940521;28;19974;-68
2022/10/30 16:02:49;;;;;;;;;;;21.20;99.90;;;;;;4944623;28;19985;-68
2022/10/30 16:05:21;;;;;;;;;;;21.00;99.90;;;;;;4939430;29;20469;-68
2022/10/30 16:07:48;;;;;;;;;;;20.90;99.90;;;;;;4949860;29;20371;-67
2022/10/30 16:10:16;;;;;;;;;;;20.70;99.90;;;;;;4950827;29;19934;-70
2022/10/30 16:12:42;;;;;;;;;;;20.60;99.90;;;;;;4947117;29;19943;-71
2022/10/30 16:15:24;;;;;;;;;;;20.40;99.90;;;;;;4941449;29;19927;-71
2022/10/30 16:17:58;;;;;;;;;;;20.30;99.90;;;;;;4941041;29;19927;-70
2022/10/30 16:20:27;;;;;;;;;;;20.20;99.90;;;;;;4952374;29;19937;-70
2022/10/30 16:22:54;;;;;;;;;;;20.10;99.90;;;;;;4947975;29;19927;-69
2022/10/30 16:25:21;;;;;;;;;;;20.00;99.90;;;;;;4947502;29;19931;-69
2022/10/30 16:27:48;;;;;;;;;;;19.90;99.90;;;;;;4941299;29;19927;-70
2022/10/30 16:30:16;;;;;;;;;;;19.80;99.90;;;;;;4947176;29;19927;-69
2022/10/30 16:32:45;;;;;;;;;;;19.70;99.90;;;;;;4953509;29;19926;-69
2022/10/30 16:35:12;;;;;;;;;;;19.70;99.90;;;;;;4955018;29;19930;-70
2022/10/30 16:37:42;;;;;;;;;;;19.60;99.90;;;;;;4957713;28;19942;-70
2022/10/30 16:40:12;;;;;;;;;;;19.50;99.90;;;;;;4947683;29;20003;-68
2022/10/30 16:42:39;;;;;;;;;;;19.50;99.90;;;;;;4948985;29;19927;-69
2022/10/30 16:45:33;;;;;;;;;;;19.40;99.90;;;;;;4952848;29;20416;-69
2022/10/30 16:48:02;;;;;;;;;;;19.30;99.90;;;;;;4940886;29;19931;-69
2022/10/30 16:50:30;;;;;;;;;;;19.20;99.90;;;;;;4944055;29;20029;-70
2022/10/30 16:53:04;;;;;;;;;;;19.20;99.90;;;;;;4949176;29;19927;-72
2022/10/30 16:55:32;;;;;;;;;;;19.10;99.90;;;;;;4940059;29;19931;-71
2022/10/30 16:57:59;;;;;;;;;;;19.00;99.90;;;;;;4941790;29;19970;-69
2022/10/30 17:00:27;;;;;;;;;;;19.00;99.90;;;;;;4941147;29;19929;-67
2022/10/30 17:02:55;;;;;;;;;;;19.00;99.90;;;;;;4945600;28;19932;-70
2022/10/30 17:05:24;;;;;;;;;;;19.00;99.90;;;;;;4959267;28;19939;-70
2022/10/30 17:07:55;;;;;;;;;;;19.00;99.90;;;;;;4949503;29;19931;-71
2022/10/30 17:10:33;;;;;;;;;;;19.00;99.90;;;;;;4948714;29;19978;-71
2022/10/30 17:13:18;;;;;;;;;;;18.90;99.90;;;;;;4952440;28;20361;-70
2022/10/30 17:15:45;;;;;;;;;;;18.90;99.90;;;;;;4944211;29;19927;-70
2022/10/30 17:18:15;;;;;;;;;;;18.90;99.90;;;;;;4950566;29;19926;-70
2022/10/30 17:20:42;;;;;;;;;;;18.80;99.90;;;;;;4950315;29;19934;-70
2022/10/30 17:23:14;;;;;;;;;;;18.80;99.90;;;;;;4944374;29;20410;-71
2022/10/30 17:25:43;;;;;;;;;;;18.80;99.90;;;;;;4943277;29;20310;-70
2022/10/30 17:28:24;;;;;;;;;;;18.80;99.90;;;;;;4967379;28;19938;-69
2022/10/30 17:30:51;;;;;;;;;;;18.80;99.90;;;;;;4940767;29;19950;-69
2022/10/30 17:33:25;;;;;;;;;;;18.70;99.90;;;;;;4947329;29;19927;-69
2022/10/30 17:35:52;;;;;;;;;;;18.60;99.90;;;;;;4949569;29;20290;-69
2022/10/30 17:38:19;;;;;;;;;;;18.60;99.90;;;;;;4944400;29;19927;-70
2022/10/30 17:40:47;;;;;;;;;;;18.60;99.90;;;;;;4946831;28;19959;-69
2022/10/30 17:43:14;;;;;;;;;;;18.50;99.90;;;;;;4944318;29;19930;-68
2022/10/30 17:45:41;;;;;;;;;;;18.50;99.90;;;;;;4938075;29;19931;-69
2022/10/30 17:48:12;;;;;;;;;;;18.40;99.90;;;;;;4943695;29;19927;-68
2022/10/30 17:50:39;;;;;;;;;;;18.40;99.90;;;;;;4944467;29;19934;-68
2022/10/30 17:53:06;;;;;;;;;;;18.30;99.90;;;;;;4950932;29;20390;-70
2022/10/30 17:55:33;;;;;;;;;;;18.30;99.90;;;;;;4950545;29;19930;-67
2022/10/30 17:58:02;;;;;;;;;;;18.30;99.90;;;;;;4951462;29;19933;-67
2022/10/30 18:00:29;;;;;;;;;;;18.20;99.90;;;;;;4951318;29;19933;-68
2022/10/30 18:02:55;;;;;;;;;;;18.20;99.90;;;;;;4941631;29;19983;-69
2022/10/30 18:05:25;;;;;;;;;;;18.10;99.90;;;;;;4949292;28;19926;-68
2022/10/30 18:07:52;;;;;;;;;;;18.10;99.90;;;;;;4949347;29;19981;-67
2022/10/30 18:10:35;;;;;;;;;;;18.10;99.90;;;;;;5110825;27;19918;-68
2022/10/30 18:13:02;;;;;;;;;;;18.00;99.90;;;;;;5100844;27;19967;-68
2022/10/30 18:15:31;;;;;;;;;;;18.00;99.90;;;;;;5094515;28;20482;-68
2022/10/30 18:17:58;;;;;;;;;;;18.00;99.90;;;;;;5113348;28;20051;-68
2022/10/30 18:20:24;;;;;;;;;;;18.00;99.90;;;;;;5099097;28;19931;-67
2022/10/30 18:22:52;;;;;;;;;;;18.00;99.90;;;;;;5104141;28;19957;-69
2022/10/30 18:25:21;;;;;;;;;;;18.00;99.90;;;;;;5112044;28;19931;-68
2022/10/30 18:27:50;;;;;;;;;;;17.90;99.90;;;;;;5097727;28;19923;-68
2022/10/30 18:30:17;;;;;;;;;;;17.90;99.90;;;;;;5102903;28;19977;-69
2022/10/30 18:32:44;;;;;;;;;;;17.90;99.90;;;;;;5109095;27;20420;-69
2022/10/30 18:35:15;;;;;;;;;;;17.90;99.90;;;;;;5113818;28;19924;-68
2022/10/30 18:37:42;;;;;;;;;;;17.90;99.90;;;;;;5101869;27;19927;-70
2022/10/30 18:40:09;;;;;;;;;;;17.90;99.90;;;;;;5113425;28;19962;-69
2022/10/30 18:42:36;;;;;;;;;;;17.90;99.90;;;;;;5114231;28;19928;-68
2022/10/30 18:45:09;;;;;;;;;;;17.90;99.90;;;;;;5114804;27;19977;-70